Terminal Aerodrome Forecast
Issued by NWS Buffalo, NY

Home | Current Version | Previous Version | Text Only | Print | Product List | Glossary On
Versions: 1 2 3 4 5 6 7 8 9 10 11 12 13 14 15 16 17 18 19 20 21 22 23 24 25 26 27 28 29 30
000
FTUS41 KBUF 251600 AAD
TAFROC
TAF AMD
KROC 251609Z 2516/2612 32010KT 4SM -SN BKN015
     FM251800 33009KT P6SM BKN250
     FM252200 35005KT P6SM SCT200
     FM260200 03006KT P6SM SCT200
     FM260500 07006KT P6SM BKN200
     FM260600 07006KT P6SM BKN150=

USA.gov is the U.S. government's official web portal to all federal, state and local government web resources and services.